Time;durP1;ratioP1;P1;durP2;ratioP2;P2;SDS_P1;SDS_P2;PMS_P1;PMS_P2;Temp;Humidity;BMP_temperature;BMP_pressure;BME280_temperature;BME280_humidity;BME280_pressure;Samples;Min_cycle;Max_cycle;Signal;HPM_P1;HPM_P2
2024/03/21 00:00:30;;;;;;;89.00;42.90;;;;;;;2.64;78.41;100317.70;217434;1259;140664;-70
2024/03/21 00:05:54;;;;;;;75.60;41.10;;;;;;;2.48;78.02;100317.20;217612;1256;139781;-69
2024/03/21 00:10:59;;;;;;;70.80;43.60;;;;;;;2.30;77.90;100314.38;218338;1257;141665;-71
2024/03/21 00:16:06;;;;;;;62.90;38.90;;;;;;;2.13;78.01;100309.24;217788;1257;140107;-68
2024/03/21 00:21:09;;;;;;;61.50;36.30;;;;;;;2.01;78.25;100301.50;217553;1261;140515;-68
2024/03/21 00:26:14;;;;;;;76.30;43.00;;;;;;;1.89;78.63;100297.52;217598;1262;141478;-68
2024/03/21 00:31:17;;;;;;;71.50;45.00;;;;;;;1.86;79.45;100293.61;217453;1257;140150;-69
2024/03/21 00:36:20;;;;;;;75.70;43.00;;;;;;;1.87;79.28;100296.02;217718;1258;140245;-68
2024/03/21 00:41:24;;;;;;;71.40;42.60;;;;;;;1.87;79.42;100299.42;217970;1260;139964;-70
2024/03/21 00:46:28;;;;;;;71.40;40.20;;;;;;;1.82;79.26;100293.19;217825;1260;141249;-68
2024/03/21 00:51:31;;;;;;;70.80;40.10;;;;;;;1.68;78.89;100288.36;217354;1260;140658;-69
2024/03/21 00:56:36;;;;;;;75.10;43.00;;;;;;;1.57;79.53;100286.60;217945;1263;141795;-68
2024/03/21 01:01:40;;;;;;;79.00;38.60;;;;;;;1.55;79.72;100283.58;218774;1260;139878;-68
2024/03/21 01:06:44;;;;;;;76.00;40.90;;;;;;;1.54;79.42;100281.13;217716;1263;140013;-68
2024/03/21 01:11:47;;;;;;;61.30;39.10;;;;;;;1.47;79.71;100276.59;217670;1260;139786;-68
2024/03/21 01:16:50;;;;;;;65.10;37.00;;;;;;;1.39;79.24;100279.44;217945;1260;140991;-68
2024/03/21 01:21:54;;;;;;;72.30;38.90;;;;;;;1.34;79.93;100273.84;218836;1257;139731;-68
2024/03/21 01:26:58;;;;;;;71.40;40.40;;;;;;;1.28;79.43;100268.28;220421;1258;140237;-71
2024/03/21 01:32:00;;;;;;;62.70;35.00;;;;;;;1.24;79.72;100268.77;220266;1258;141147;-70
2024/03/21 01:37:05;;;;;;;68.40;41.30;;;;;;;1.23;79.71;100268.30;217512;1260;140586;-69
2024/03/21 01:42:16;;;;;;;53.90;31.50;;;;;;;1.14;79.30;100270.34;218522;1260;140199;-69
2024/03/21 01:47:22;;;;;;;65.60;35.10;;;;;;;0.97;79.58;100263.23;218350;1260;140683;-69
2024/03/21 01:52:26;;;;;;;65.90;35.50;;;;;;;0.86;80.51;100256.25;217488;1260;140078;-69
2024/03/21 01:57:32;;;;;;;60.60;32.40;;;;;;;0.89;81.01;100249.21;217562;1260;139792;-68
2024/03/21 02:02:35;;;;;;;67.30;36.80;;;;;;;0.96;81.48;100252.42;217450;1261;140959;-68
2024/03/21 02:07:38;;;;;;;58.70;35.30;;;;;;;1.02;81.29;100247.98;217697;1257;140018;-69
2024/03/21 02:12:48;;;;;;;65.30;37.40;;;;;;;1.03;81.52;100244.70;217477;1260;140239;-69
2024/03/21 02:17:52;;;;;;;68.60;39.00;;;;;;;1.07;81.72;100244.88;217343;1260;140104;-69
2024/03/21 02:22:55;;;;;;;65.30;36.20;;;;;;;1.10;81.85;100253.29;218191;1260;140903;-68
2024/03/21 02:27:59;;;;;;;67.60;36.50;;;;;;;1.12;81.95;100249.91;217674;1258;140703;-66
2024/03/21 02:33:04;;;;;;;73.10;37.70;;;;;;;1.13;81.81;100250.64;218007;1258;139454;-69
2024/03/21 02:38:07;;;;;;;69.70;37.40;;;;;;;1.16;82.05;100248.02;217520;1260;140662;-68
2024/03/21 02:43:10;;;;;;;68.80;37.30;;;;;;;1.18;81.79;100253.25;217811;1260;139580;-69
2024/03/21 02:48:14;;;;;;;63.40;35.70;;;;;;;1.22;82.14;100252.85;217536;1257;139750;-68
2024/03/21 02:53:17;;;;;;;62.40;33.60;;;;;;;1.25;82.42;100249.91;217614;1258;140903;-68
2024/03/21 02:58:21;;;;;;;64.60;35.50;;;;;;;1.25;82.33;100247.61;217408;1256;139867;-69
2024/03/21 03:03:25;;;;;;;54.10;33.50;;;;;;;1.28;82.79;100242.20;219362;1257;140254;-69
2024/03/21 03:08:30;;;;;;;60.90;34.70;;;;;;;1.32;82.42;100239.73;217577;1256;139483;-68
2024/03/21 03:13:34;;;;;;;72.90;36.50;;;;;;;1.36;82.82;100236.52;217701;1260;139985;-68
2024/03/21 03:18:37;;;;;;;62.00;36.00;;;;;;;1.40;83.41;100232.87;217406;1260;139968;-68
2024/03/21 03:23:40;;;;;;;65.40;35.70;;;;;;;1.44;83.08;100240.84;217921;1257;139494;-68
2024/03/21 03:28:44;;;;;;;65.00;35.20;;;;;;;1.51;83.28;100242.08;218316;1256;139603;-68
2024/03/21 03:39:09;;;;;;;63.10;32.00;;;;;;;1.57;83.61;100235.59;217484;1257;140036;-68
2024/03/21 03:44:15;;;;;;;65.00;35.00;;;;;;;1.59;83.68;100234.96;218326;1257;140493;-69
2024/03/21 03:49:18;;;;;;;79.40;42.80;;;;;;;1.65;84.06;100227.94;217755;1257;140958;-67
2024/03/21 03:54:22;;;;;;;65.60;35.10;;;;;;;1.68;84.03;100224.73;217532;1258;139874;-68
2024/03/21 03:59:26;;;;;;;62.90;34.70;;;;;;;1.75;83.92;100226.20;217921;1257;139829;-68
2024/03/21 04:04:29;;;;;;;57.70;30.50;;;;;;;1.81;84.21;100233.23;217560;1257;139955;-68
2024/03/21 04:09:33;;;;;;;53.40;29.00;;;;;;;1.88;84.37;100234.69;217476;1257;140485;-68
2024/03/21 04:14:36;;;;;;;47.30;27.40;;;;;;;1.94;84.60;100233.98;217640;1257;139913;-68
2024/03/21 04:19:39;;;;;;;58.50;31.90;;;;;;;2.02;84.57;100234.38;217793;1258;139688;-68
2024/03/21 04:24:43;;;;;;;63.70;35.30;;;;;;;2.09;84.65;100240.48;217624;1257;139532;-68
2024/03/21 04:29:46;;;;;;;55.30;31.70;;;;;;;2.16;84.44;100246.89;217489;1260;139914;-68
2024/03/21 04:34:49;;;;;;;58.30;30.50;;;;;;;2.21;84.62;100249.45;217539;1257;140347;-68
2024/03/21 04:39:52;;;;;;;54.20;31.00;;;;;;;2.26;84.91;100257.14;217376;1256;140501;-68
2024/03/21 04:44:55;;;;;;;48.90;30.00;;;;;;;2.30;84.48;100262.10;218241;1256;140470;-68
2024/03/21 04:49:58;;;;;;;55.30;30.60;;;;;;;2.32;84.58;100268.02;217439;1257;139691;-68
2024/03/21 04:55:01;;;;;;;55.10;30.50;;;;;;;2.33;84.56;100268.17;217540;1257;139883;-68
2024/03/21 05:00:10;;;;;;;51.10;30.80;;;;;;;2.32;84.45;100265.78;217523;1260;141386;-67
2024/03/21 05:05:13;;;;;;;60.20;32.10;;;;;;;2.38;84.75;100272.47;218890;1257;140784;-70
2024/03/21 05:10:16;;;;;;;58.50;32.80;;;;;;;2.45;84.76;100261.88;219258;1257;140585;-71
2024/03/21 05:15:19;;;;;;;62.40;36.60;;;;;;;2.49;84.35;100259.13;218226;1259;140039;-71
2024/03/21 05:20:27;;;;;;;47.70;30.00;;;;;;;2.55;84.57;100258.83;219389;1256;141065;-71
2024/03/21 05:25:30;;;;;;;57.70;31.60;;;;;;;2.61;84.42;100253.58;219157;1259;139972;-70
2024/03/21 05:30:33;;;;;;;55.90;33.30;;;;;;;2.70;84.52;100248.80;217753;1260;140816;-70
2024/03/21 05:35:36;;;;;;;55.10;35.00;;;;;;;2.84;84.36;100247.84;217477;1259;140919;-69
2024/03/21 05:40:41;;;;;;;52.40;30.50;;;;;;;3.00;84.64;100247.64;217628;1260;140489;-70
2024/03/21 05:45:44;;;;;;;45.00;26.40;;;;;;;3.15;84.29;100240.85;217492;1260;141762;-70
2024/03/21 05:50:47;;;;;;;49.50;27.00;;;;;;;3.23;84.49;100225.07;217795;1257;140416;-71
2024/03/21 05:56:05;;;;;;;46.00;26.70;;;;;;;3.28;84.27;100223.55;217723;1256;140379;-71
2024/03/21 06:06:17;;;;;;;46.90;28.50;;;;;;;3.65;84.46;100230.54;217667;1257;139784;-67
2024/03/21 06:11:20;;;;;;;54.90;29.10;;;;;;;3.80;84.35;100235.74;218081;1256;139734;-69
2024/03/21 06:16:24;;;;;;;45.90;28.00;;;;;;;3.98;84.24;100231.06;217622;1257;139469;-68
2024/03/21 06:21:26;;;;;;;37.20;23.70;;;;;;;4.18;84.23;100235.15;217269;1257;153971;-69
2024/03/21 06:26:28;;;;;;;40.90;26.30;;;;;;;4.34;83.88;100228.86;217745;1257;140100;-68
2024/03/21 06:31:32;;;;;;;42.00;26.60;;;;;;;4.47;83.66;100222.59;218589;1256;140237;-69
2024/03/21 06:36:35;;;;;;;51.60;28.20;;;;;;;4.59;83.59;100214.98;218152;1257;142808;-70
2024/03/21 06:41:38;;;;;;;47.30;27.20;;;;;;;4.73;83.53;100222.59;218306;1257;139953;-68
2024/03/21 06:46:41;;;;;;;41.70;25.20;;;;;;;4.93;83.26;100227.20;217761;1256;140105;-69
2024/03/21 06:51:45;;;;;;;44.00;23.10;;;;;;;5.22;83.53;100230.05;217377;1257;140243;-71
2024/03/21 06:56:48;;;;;;;53.40;32.50;;;;;;;5.49;82.62;100236.54;217652;1256;140783;-67
2024/03/21 07:01:51;;;;;;;37.30;23.70;;;;;;;5.83;82.71;100235.61;220462;1257;140510;-69
2024/03/21 07:06:55;;;;;;;50.10;26.40;;;;;;;6.13;81.86;100235.00;218047;1256;139950;-70
2024/03/21 07:11:58;;;;;;;43.40;27.00;;;;;;;6.41;81.51;100238.80;217573;1260;139674;-70
2024/03/21 07:17:02;;;;;;;43.70;26.70;;;;;;;6.72;81.01;100244.86;218526;1256;140384;-73
2024/03/21 07:22:04;;;;;;;52.90;28.00;;;;;;;6.88;80.36;100248.46;217775;1257;139650;-73
2024/03/21 07:27:08;;;;;;;50.30;29.90;;;;;;;7.10;80.12;100250.25;217494;1257;140346;-72
2024/03/21 07:32:11;;;;;;;49.40;28.80;;;;;;;7.34;79.64;100247.30;217639;1260;142728;-72
2024/03/21 07:37:13;;;;;;;46.70;23.90;;;;;;;7.72;79.82;100245.51;217747;1257;140731;-72
2024/03/21 07:42:16;;;;;;;40.60;23.70;;;;;;;8.13;79.27;100245.86;217514;1256;140375;-70
2024/03/21 07:47:20;;;;;;;52.00;29.10;;;;;;;8.54;79.36;100236.28;217594;1257;140088;-72
2024/03/21 07:52:23;;;;;;;47.50;29.40;;;;;;;8.88;78.78;100234.20;217599;1257;140281;-72
2024/03/21 07:57:26;;;;;;;56.60;32.40;;;;;;;9.15;77.88;100233.08;217555;1256;140090;-72
2024/03/21 08:02:30;;;;;;;52.10;31.60;;;;;;;9.22;77.26;100233.36;217478;1256;140396;-74
2024/03/21 08:07:33;;;;;;;52.30;29.20;;;;;;;9.35;76.49;100232.63;217768;1257;141121;-71
2024/03/21 08:12:36;;;;;;;46.90;28.10;;;;;;;9.48;76.32;100232.54;217568;1260;140031;-70
2024/03/21 08:17:40;;;;;;;48.60;31.10;;;;;;;9.68;75.97;100231.45;217680;1257;140820;-72
2024/03/21 08:22:43;;;;;;;43.90;29.40;;;;;;;9.98;75.97;100226.37;217312;1256;141784;-72
2024/03/21 08:27:46;;;;;;;50.20;29.50;;;;;;;10.37;75.74;100225.36;218564;1256;139718;-72
2024/03/21 08:32:49;;;;;;;48.50;31.40;;;;;;;10.70;74.94;100225.89;217645;1257;140243;-72
2024/03/21 08:37:53;;;;;;;45.50;27.30;;;;;;;10.81;73.53;100225.14;217981;1256;140291;-73
2024/03/21 08:42:56;;;;;;;40.00;25.70;;;;;;;10.94;73.45;100222.10;217630;1257;140202;-72
2024/03/21 08:48:00;;;;;;;44.50;26.60;;;;;;;11.12;72.53;100219.64;218214;1260;139908;-73
2024/03/21 08:53:04;;;;;;;39.40;26.10;;;;;;;11.28;72.02;100209.70;217853;1257;139746;-72
2024/03/21 08:58:07;;;;;;;48.90;29.00;;;;;;;11.61;72.29;100213.65;218695;1256;141072;-73
2024/03/21 09:03:11;;;;;;;46.30;27.00;;;;;;;11.77;71.30;100213.38;218033;1256;141161;-73
2024/03/21 09:08:13;;;;;;;45.40;27.80;;;;;;;11.84;70.68;100210.98;219362;1256;140608;-72
2024/03/21 09:13:16;;;;;;;45.90;27.70;;;;;;;12.10;70.81;100208.80;217512;1260;140359;-71
2024/03/21 09:18:19;;;;;;;44.00;24.60;;;;;;;12.39;70.13;100198.42;217832;1256;140559;-73
2024/03/21 09:23:24;;;;;;;37.90;23.00;;;;;;;12.71;69.38;100195.54;217674;1260;140271;-72
2024/03/21 09:28:27;;;;;;;46.90;28.60;;;;;;;13.06;68.85;100193.06;217617;1260;140767;-73
2024/03/21 09:33:31;;;;;;;36.80;25.40;;;;;;;12.99;66.87;100191.11;217439;1256;140232;-72
2024/03/21 09:38:35;;;;;;;43.10;26.50;;;;;;;12.93;67.04;100194.73;217918;1257;139618;-73
2024/03/21 09:43:38;;;;;;;34.70;22.10;;;;;;;13.26;66.74;100189.48;217672;1257;140046;-73
2024/03/21 09:48:42;;;;;;;32.50;20.60;;;;;;;13.51;66.28;100182.61;217658;1260;139425;-72
2024/03/21 09:53:47;;;;;;;36.00;22.50;;;;;;;13.71;65.57;100181.92;217747;1256;140538;-73
2024/03/21 09:58:50;;;;;;;31.40;22.50;;;;;;;13.92;65.25;100176.89;218334;1256;139883;-74
2024/03/21 10:03:57;;;;;;;37.60;23.10;;;;;;;14.13;64.80;100176.54;217868;1257;140996;-73
2024/03/21 10:09:03;;;;;;;42.80;26.00;;;;;;;14.33;63.87;100167.66;217463;1257;141045;-74
2024/03/21 10:14:11;;;;;;;35.80;24.40;;;;;;;14.42;63.09;100163.90;217743;1257;140278;-74
2024/03/21 10:19:16;;;;;;;37.50;25.80;;;;;;;14.20;61.97;100157.71;218036;1257;139736;-73
2024/03/21 10:24:19;;;;;;;44.60;26.30;;;;;;;14.11;61.83;100155.59;218080;1257;139496;-76
2024/03/21 10:29:23;;;;;;;35.10;23.10;;;;;;;14.16;62.31;100156.89;217569;1260;141853;-74
2024/03/21 10:34:27;;;;;;;30.60;20.70;;;;;;;14.34;61.88;100152.75;219281;1256;139147;-75
2024/03/21 10:39:32;;;;;;;40.10;23.70;;;;;;;14.49;61.50;100152.10;218244;1256;140410;-76
2024/03/21 10:44:35;;;;;;;25.60;16.30;;;;;;;14.70;61.31;100149.08;219870;1256;329347;-73
2024/03/21 10:49:38;;;;;;;29.40;22.80;;;;;;;14.92;60.95;100142.71;217668;1260;139607;-73
2024/03/21 10:54:42;;;;;;;27.40;18.40;;;;;;;15.07;60.25;100145.64;218038;1256;140148;-73
2024/03/21 11:00:14;;;;;;;27.20;15.90;;;;;;;15.20;59.39;100140.55;217564;1260;139496;-73
2024/03/21 11:05:21;;;;;;;28.60;18.60;;;;;;;15.33;58.73;100137.38;217622;1257;139189;-73
2024/03/21 11:10:26;;;;;;;32.10;17.60;;;;;;;15.46;58.23;100136.64;217377;1260;140329;-75
2024/03/21 11:15:28;;;;;;;21.60;15.30;;;;;;;15.58;57.50;100136.27;217458;1260;140371;-75
2024/03/21 11:20:32;;;;;;;28.40;19.40;;;;;;;15.56;56.19;100128.66;217796;1257;140801;-71
2024/03/21 11:25:36;;;;;;;26.80;18.40;;;;;;;15.55;55.98;100131.20;218004;1259;139516;-73
2024/03/21 11:30:45;;;;;;;30.00;20.40;;;;;;;15.49;55.05;100126.40;217649;1259;140035;-75
2024/03/21 11:35:48;;;;;;;24.80;16.80;;;;;;;15.48;55.30;100125.05;217632;1256;139370;-73
2024/03/21 11:40:53;;;;;;;36.30;22.30;;;;;;;15.43;54.63;100121.08;218302;1256;139999;-73
2024/03/21 11:46:00;;;;;;;35.60;20.30;;;;;;;15.41;54.42;100117.84;217897;1257;140643;-72
2024/03/21 11:51:04;;;;;;;30.20;19.70;;;;;;;15.41;54.36;100116.23;217571;1257;139763;-73
2024/03/21 11:56:07;;;;;;;30.50;20.90;;;;;;;15.53;54.58;100114.33;217891;1260;141930;-74
2024/03/21 12:01:10;;;;;;;28.30;19.70;;;;;;;15.75;54.92;100113.11;218246;1256;140305;-74
2024/03/21 12:06:13;;;;;;;26.70;19.40;;;;;;;15.82;53.81;100110.85;217492;1260;139352;-75
2024/03/21 12:11:18;;;;;;;26.20;17.90;;;;;;;15.85;53.76;100099.96;217361;1260;139946;-76
2024/03/21 12:16:22;;;;;;;27.10;17.70;;;;;;;15.98;53.48;100087.64;217483;1260;139788;-78
2024/03/21 12:21:25;;;;;;;27.00;17.50;;;;;;;16.09;53.29;100081.04;218188;1257;140069;-75
2024/03/21 12:26:28;;;;;;;17.30;12.20;;;;;;;16.31;53.58;100073.84;218049;1257;139761;-75
2024/03/21 12:31:31;;;;;;;29.50;18.70;;;;;;;16.32;52.13;100065.79;218189;1257;139473;-73
2024/03/21 12:36:35;;;;;;;22.90;13.70;;;;;;;16.15;51.75;100059.27;219455;1257;139646;-76
2024/03/21 12:41:39;;;;;;;20.90;13.30;;;;;;;16.09;51.45;100058.98;217644;1259;139987;-73
2024/03/21 12:46:41;;;;;;;23.10;13.30;;;;;;;16.01;51.13;100055.08;219101;1256;140939;-75
2024/03/21 12:51:47;;;;;;;19.00;13.80;;;;;;;16.08;51.32;100050.91;217877;1257;139813;-73
2024/03/21 12:56:50;;;;;;;16.20;12.10;;;;;;;16.31;51.42;100039.03;217537;1257;140421;-74
2024/03/21 13:02:00;;;;;;;18.30;12.30;;;;;;;16.44;50.94;100033.00;217536;1257;139709;-74
2024/03/21 13:07:04;;;;;;;17.90;12.00;;;;;;;16.54;50.65;100029.51;217559;1257;139492;-74
2024/03/21 13:12:08;;;;;;;16.60;11.40;;;;;;;16.40;49.85;100025.29;217627;1260;139135;-74
2024/03/21 13:17:11;;;;;;;20.00;12.50;;;;;;;16.28;49.91;100017.23;217764;1256;139579;-75
2024/03/21 13:22:15;;;;;;;20.90;13.60;;;;;;;16.21;50.06;100013.45;217558;1257;140336;-72
2024/03/21 13:27:21;;;;;;;18.70;11.30;;;;;;;16.11;49.72;100013.82;217464;1261;139690;-73
2024/03/21 13:32:24;;;;;;;14.60;9.60;;;;;;;16.07;50.21;100017.24;217664;1260;139438;-74
2024/03/21 13:37:27;;;;;;;15.00;10.20;;;;;;;16.09;50.18;100009.12;217622;1257;139602;-74
2024/03/21 13:42:30;;;;;;;17.40;10.40;;;;;;;16.02;50.51;100004.30;217322;1257;139895;-74
2024/03/21 13:47:35;;;;;;;15.80;10.60;;;;;;;16.07;50.73;100002.48;217779;1257;139113;-73
2024/03/21 13:52:44;;;;;;;21.40;12.30;;;;;;;16.04;50.73;100007.70;217846;1257;140673;-74
2024/03/21 13:57:46;;;;;;;17.40;11.20;;;;;;;15.94;50.68;100001.80;217485;1257;139826;-73
2024/03/21 14:02:50;;;;;;;18.90;11.90;;;;;;;15.76;50.38;100006.20;217677;1257;139688;-74
2024/03/21 14:07:54;;;;;;;20.00;11.80;;;;;;;15.70;51.03;100005.31;217589;1257;139549;-73
2024/03/21 14:12:57;;;;;;;16.50;10.50;;;;;;;15.63;50.85;99997.70;217468;1257;140159;-74
2024/03/21 14:18:00;;;;;;;17.20;12.30;;;;;;;15.61;50.95;99997.09;217609;1260;140803;-74
2024/03/21 14:23:04;;;;;;;19.60;11.90;;;;;;;15.63;51.25;99997.53;217566;1257;140876;-74
2024/03/21 14:28:09;;;;;;;30.20;12.20;;;;;;;15.57;51.19;99995.45;217383;1256;141248;-74
2024/03/21 14:33:19;;;;;;;16.30;12.80;;;;;;;15.49;51.29;99988.36;217490;1257;139256;-72
2024/03/21 14:38:23;;;;;;;25.00;12.90;;;;;;;15.43;51.50;99987.73;218298;1259;140249;-71
2024/03/21 14:43:28;;;;;;;19.90;11.30;;;;;;;15.34;51.33;99985.95;218240;1257;140457;-73
2024/03/21 14:48:31;;;;;;;17.50;10.20;;;;;;;15.27;51.46;99981.89;217477;1257;139292;-72
2024/03/21 14:53:33;;;;;;;16.40;10.70;;;;;;;15.21;51.31;99976.05;218074;1256;140875;-72
2024/03/21 14:58:38;;;;;;;18.10;11.10;;;;;;;15.13;51.21;99982.55;217450;1260;139964;-72
2024/03/21 15:03:43;;;;;;;17.40;10.40;;;;;;;15.03;51.55;99980.11;217660;1260;139328;-72
2024/03/21 15:08:45;;;;;;;17.90;10.90;;;;;;;14.95;51.86;99974.86;217757;1256;140613;-71
2024/03/21 15:13:48;;;;;;;17.90;10.60;;;;;;;14.84;51.66;99975.95;218396;1257;140758;-73
2024/03/21 15:18:51;;;;;;;16.30;9.10;;;;;;;14.77;51.73;99974.60;217902;1260;139177;-73
2024/03/21 15:23:55;;;;;;;24.60;12.00;;;;;;;14.68;51.85;99972.81;218017;1257;140490;-71
2024/03/21 15:28:58;;;;;;;20.40;11.40;;;;;;;14.61;51.68;99975.34;217817;1257;139565;-72
2024/03/21 15:34:00;;;;;;;16.50;11.30;;;;;;;14.55;51.97;99970.98;217842;1261;140591;-72
2024/03/21 15:39:06;;;;;;;15.90;10.70;;;;;;;14.47;52.68;99969.89;217637;1260;140067;-73
2024/03/21 15:44:10;;;;;;;;;;;;;;;14.36;53.13;99962.05;217718;1257;139348;-72
2024/03/21 15:49:13;;;;;;;17.10;10.30;;;;;;;14.22;53.59;99957.34;218587;1257;125783;-71
2024/03/21 15:54:16;;;;;;;15.30;10.20;;;;;;;14.07;54.30;99955.27;217634;1260;139524;-71
2024/03/21 15:59:19;;;;;;;16.50;10.10;;;;;;;13.95;55.01;99951.64;218248;1257;139786;-72
2024/03/21 16:04:22;;;;;;;15.20;10.00;;;;;;;13.83;55.14;99954.78;217607;1257;139866;-72
2024/03/21 16:09:25;;;;;;;12.90;9.40;;;;;;;13.72;55.56;99948.49;218373;1260;139696;-72
2024/03/21 16:14:29;;;;;;;13.30;9.70;;;;;;;13.61;56.36;99951.09;217913;1257;139756;-71
2024/03/21 16:19:32;;;;;;;14.80;9.40;;;;;;;13.50;56.98;99948.16;217830;1257;139044;-71
2024/03/21 16:24:35;;;;;;;14.60;9.10;;;;;;;13.39;57.46;99945.98;217447;1256;139589;-72
2024/03/21 16:29:37;;;;;;;10.80;8.20;;;;;;;13.28;58.54;99948.45;218072;1260;139489;-71
2024/03/21 16:34:40;;;;;;;15.30;8.60;;;;;;;13.16;59.28;99947.80;217478;1260;140204;-74
2024/03/21 16:39:43;;;;;;;9.70;8.10;;;;;;;13.04;59.40;99947.61;218136;1261;138531;-73
2024/03/21 16:44:46;;;;;;;12.20;9.20;;;;;;;12.92;59.94;99948.71;218271;1260;149655;-72
2024/03/21 16:49:49;;;;;;;12.00;9.30;;;;;;;12.80;60.35;99958.31;217952;1260;139673;-74
2024/03/21 16:54:53;;;;;;;14.00;9.20;;;;;;;12.67;60.61;99957.52;217599;1262;139008;-71
2024/03/21 16:59:57;;;;;;;12.10;7.60;;;;;;;12.54;60.83;99964.80;217973;1257;139783;-72
2024/03/21 17:05:04;;;;;;;13.60;8.60;;;;;;;12.41;61.45;99971.59;217637;1260;139894;-71
2024/03/21 17:10:10;;;;;;;18.80;10.50;;;;;;;12.31;62.13;99982.84;217534;1257;139183;-71
2024/03/21 17:15:13;;;;;;;14.20;10.10;;;;;;;12.15;62.85;99987.44;217715;1257;139561;-73
2024/03/21 17:20:17;;;;;;;18.60;11.40;;;;;;;11.98;63.77;99998.68;217766;1260;141018;-71
2024/03/21 17:25:20;;;;;;;20.90;10.40;;;;;;;11.78;64.54;100005.95;217930;1257;140428;-72
2024/03/21 17:30:23;;;;;;;22.20;13.80;;;;;;;11.55;65.35;100009.79;217865;1257;140088;-70
2024/03/21 17:35:26;;;;;;;18.00;12.50;;;;;;;11.40;66.27;100014.16;218340;1260;140932;-72
2024/03/21 17:40:36;;;;;;;18.40;12.50;;;;;;;11.31;67.04;100011.29;217656;1257;140500;-75
2024/03/21 17:45:39;;;;;;;24.80;14.90;;;;;;;11.19;67.77;100013.04;217636;1260;141025;-73
2024/03/21 17:50:46;;;;;;;26.10;14.70;;;;;;;11.02;68.41;100022.13;217492;1260;140483;-72
2024/03/21 17:55:49;;;;;;;21.20;12.40;;;;;;;10.82;69.11;100024.10;217520;1261;140167;-72
2024/03/21 18:00:51;;;;;;;21.20;13.30;;;;;;;10.63;69.90;100023.77;217432;1260;140805;-75
2024/03/21 18:05:56;;;;;;;22.00;14.60;;;;;;;10.40;70.65;100021.16;217340;1260;141226;-70
2024/03/21 18:10:59;;;;;;;27.70;14.10;;;;;;;10.25;71.30;100030.98;217489;1261;140650;-72
2024/03/21 18:16:01;;;;;;;23.00;15.00;;;;;;;10.12;71.88;100028.95;217351;1260;140256;-70
2024/03/21 18:21:05;;;;;;;22.00;14.20;;;;;;;10.02;72.40;100022.13;217483;1256;145273;-71
2024/03/21 18:26:08;;;;;;;23.40;16.50;;;;;;;9.93;72.86;100019.48;217456;1262;140122;-75
2024/03/21 18:31:11;;;;;;;30.20;17.00;;;;;;;9.96;73.47;100016.79;218733;1258;150680;-73
2024/03/21 18:36:15;;;;;;;29.00;16.90;;;;;;;9.98;73.85;100015.98;217537;1257;140025;-73
2024/03/21 18:41:18;;;;;;;24.80;16.10;;;;;;;9.98;73.98;100019.88;217441;1257;140690;-72
2024/03/21 18:46:21;;;;;;;25.20;15.10;;;;;;;9.95;74.25;100021.79;217289;1257;139855;-71
2024/03/21 18:51:24;;;;;;;28.90;16.20;;;;;;;9.92;74.55;100022.52;217335;1257;140175;-72
2024/03/21 18:56:28;;;;;;;26.30;15.40;;;;;;;9.87;74.96;100021.06;217279;1257;139713;-71
2024/03/21 19:01:30;;;;;;;21.80;14.50;;;;;;;9.86;75.40;100022.02;217389;1260;140741;-72
2024/03/21 19:06:34;;;;;;;24.40;15.90;;;;;;;9.84;75.57;100024.79;217841;1257;141656;-72
2024/03/21 19:11:38;;;;;;;27.20;14.40;;;;;;;9.84;76.01;100028.30;217498;1260;140018;-72
2024/03/21 19:16:41;;;;;;;25.40;17.10;;;;;;;9.85;76.29;100029.52;217688;1261;143150;-72
2024/03/21 19:21:44;;;;;;;21.70;14.80;;;;;;;9.84;76.52;100027.20;217358;1260;140651;-72
2024/03/21 19:26:48;;;;;;;24.00;15.30;;;;;;;9.81;76.77;100028.42;217241;1262;140797;-73
2024/03/21 19:31:51;;;;;;;24.60;15.00;;;;;;;9.76;77.09;100029.51;218164;1257;140320;-71
2024/03/21 19:36:54;;;;;;;29.40;15.90;;;;;;;9.68;77.16;100030.91;217560;1257;140680;-72
2024/03/21 19:41:57;;;;;;;33.00;17.70;;;;;;;9.66;77.42;100032.29;217492;1258;140377;-71
2024/03/21 19:46:59;;;;;;;29.40;18.70;;;;;;;9.66;77.32;100029.95;217561;1257;141285;-70
2024/03/21 19:52:05;;;;;;;28.20;17.70;;;;;;;9.68;77.26;100023.95;217367;1261;140580;-71
2024/03/21 19:57:09;;;;;;;25.30;16.60;;;;;;;9.73;77.08;100020.95;217693;1258;140423;-72
2024/03/21 20:02:13;;;;;;;31.30;17.40;;;;;;;9.78;77.14;100016.75;218346;1256;141050;-72
2024/03/21 20:07:16;;;;;;;31.10;19.00;;;;;;;9.84;77.24;100008.45;219516;1257;141869;-71
2024/03/21 20:12:19;;;;;;;31.20;17.10;;;;;;;9.91;77.04;100006.85;217497;1260;140559;-72
2024/03/21 20:17:22;;;;;;;32.70;18.90;;;;;;;9.97;77.04;100006.70;218283;1262;141047;-71
2024/03/21 20:22:26;;;;;;;30.10;19.50;;;;;;;10.00;77.02;100012.48;217666;1260;140814;-71
2024/03/21 20:27:28;;;;;;;38.70;21.00;;;;;;;10.01;77.04;100020.45;217312;1260;141370;-71
2024/03/21 20:32:32;;;;;;;37.30;24.50;;;;;;;9.99;77.09;100020.52;217349;1262;140763;-71
2024/03/21 20:37:35;;;;;;;34.80;22.70;;;;;;;9.99;77.26;100020.92;217664;1258;141001;-71
2024/03/21 20:42:38;;;;;;;42.80;24.80;;;;;;;9.97;77.43;100022.26;217462;1260;140185;-70
2024/03/21 20:47:46;;;;;;;41.70;24.00;;;;;;;9.95;77.62;100018.47;217559;1260;140718;-71
2024/03/21 20:52:49;;;;;;;41.20;23.60;;;;;;;9.95;77.72;100022.12;217519;1263;140977;-71
2024/03/21 20:57:53;;;;;;;35.80;23.50;;;;;;;9.91;77.97;100021.88;217726;1261;140403;-71
2024/03/21 21:02:57;;;;;;;40.70;24.70;;;;;;;9.87;78.06;100021.55;217641;1258;140167;-71
2024/03/21 21:08:02;;;;;;;46.30;25.00;;;;;;;9.81;78.08;100014.73;218176;1258;140030;-71
2024/03/21 21:13:06;;;;;;;43.80;26.50;;;;;;;9.79;78.37;100012.30;217457;1260;140547;-74
2024/03/21 21:18:08;;;;;;;38.40;26.80;;;;;;;9.79;78.72;100014.71;217612;1257;140277;-71
2024/03/21 21:23:12;;;;;;;36.40;22.50;;;;;;;9.80;78.87;100014.95;217556;1261;141730;-71
2024/03/21 21:28:15;;;;;;;34.80;21.80;;;;;;;9.80;79.06;100015.53;217634;1260;143359;-71
2024/03/21 21:33:18;;;;;;;39.20;24.10;;;;;;;9.80;79.32;100023.89;217529;1261;140120;-71
2024/03/21 21:38:21;;;;;;;37.00;24.70;;;;;;;9.80;79.55;100032.08;217458;1260;140537;-71
2024/03/21 21:43:27;;;;;;;34.80;21.60;;;;;;;9.77;79.74;100032.62;217692;1257;140070;-71
2024/03/21 21:48:31;;;;;;;30.70;18.70;;;;;;;9.76;79.83;100024.70;218815;1257;141371;-71
2024/03/21 21:53:35;;;;;;;30.40;19.60;;;;;;;9.72;79.92;100029.23;217508;1257;140855;-71
2024/03/21 21:58:43;;;;;;;33.20;21.20;;;;;;;9.70;79.98;100029.70;218530;1260;140195;-71
2024/03/21 22:03:46;;;;;;;30.80;22.10;;;;;;;9.67;80.08;100028.02;217947;1260;140544;-71
2024/03/21 22:08:49;;;;;;;35.40;21.60;;;;;;;9.65;80.11;100027.18;217568;1258;140900;-71
2024/03/21 22:13:52;;;;;;;32.70;20.60;;;;;;;9.62;80.14;100024.96;217749;1257;141670;-71
2024/03/21 22:18:55;;;;;;;41.70;26.70;;;;;;;9.60;80.24;100027.67;217403;1260;209560;-71
2024/03/21 22:23:58;;;;;;;38.80;23.90;;;;;;;9.59;80.23;100031.21;217675;1257;139720;-71
2024/03/21 22:29:02;;;;;;;43.90;25.60;;;;;;;9.58;80.21;100031.46;217495;1257;140043;-70
2024/03/21 22:34:04;;;;;;;34.30;21.50;;;;;;;9.58;80.09;100031.30;217540;1260;139855;-71
2024/03/21 22:39:10;;;;;;;42.40;25.60;;;;;;;9.56;79.95;100029.80;217615;1256;140945;-71
2024/03/21 22:44:14;;;;;;;43.50;25.70;;;;;;;9.57;80.06;100027.30;217119;1257;488986;-72
2024/03/21 22:49:17;;;;;;;32.90;20.80;;;;;;;9.56;80.01;100029.19;217562;1257;140209;-71